LFBZLFBU

Guest
Details From LFBZ - Biarritz-Anglet-Bayonne
To LFBU - Angouleme Brie Champniers
Flight Number -
Tags generated
Created
Modified
Stats Distance 158 nm / 292 km
Max Altitude 9,500 ft / 2,896 m
Waypoints 3
Social Downloads 1
Likes 0
Share VATSIM

Download

Looking for another format? Having issues loading an existing format? Contact us
Advertisement - Login to hide

Notes

Basic altitude profile: - Ascent Rate: 2500ft/min - Ascent Speed: 250kts - Cruise Altitude: 35000ft - Cruise Speed: 420kts - Descent Rate: 1500ft/min - Descent Speed: 250kts Options: - Use NATs: no - Use PACOTS: no - Use low airways: no - Use high airways: no

Route

LFBZ 4500N0000E LFBU

ID Type Via Altitude Latitude Longitude Leg Dist Tot Dist Heading (true) Name
O LFBZ APT - 0 ft / 0 m 43.46843˚ -1.52332˚ - 0 nm - Biarritz-Anglet-Bayonne
4500N0000E LATLON - 9,500 ft / 2,896 m 45.00000˚ 0.00000˚ 112 nm 112 nm 35° / 36° -
O LFBU APT - 0 ft / 0 m 45.72951˚ 0.21867˚ 44 nm 157 nm 12° / 12° Angouleme Brie Champniers

Altitude Profile

Advertisement - Login to hide

LFBZ

Details ICAO LFBZ (BIQ)
Name Biarritz-Anglet-Bayonne
Region France
Timezone Europe/Paris (UTC+1.0)
Stats Elevation 245 ft / 75 m (AMSL)
Location 43.468427° -1.523322°
Runways 1
Magnetic Variation 0.225° W

METAR

LFBZ 161500Z AUTO VRB02KT 9999 BKN016 OVC038 08/06 Q1024 TEMPO 2000 SHRA BKN015TCU

Decode

TAF

TAF AMD LFBZ 161310Z 1613/1712 VRB02KT 9999 BKN045 PROB30 TEMPO 1613/1617 2000 SHRA BKN015TCU BECMG 1618/1620 16005KT PROB30 TEMPO 1700/1708 4000 -SHRA BKN015TCU

Decode

Departure Runways

ID Width Length Bearing (true) Bearing (mag) Surface Threshold Offset Overrun Length
09 148 ft / 45 m 7,388 ft / 2,252 m 89.12° 89.35° Asphalt 673 ft / 205 m 0 ft / 0 m
27 148 ft / 45 m 7,388 ft / 2,252 m 269.14° 269.37° Asphalt 0 ft / 0 m 0 ft / 0 m

LFBU

Details ICAO LFBU (ANG)
Name Angouleme Brie Champniers
Region France
Timezone Europe/Paris (UTC+1.0)
Stats Elevation 436 ft / 133 m (AMSL)
Location 45.729515° 0.218672°
Runways 1
Magnetic Variation 0.153° E

METAR

LFBU 161500Z AUTO 31007KT 9999 BKN023 BKN034 07/02 Q1022 NOSIG

Decode

TAF

TAF LFBU 161100Z 1612/1712 30005KT CAVOK BECMG 1618/1620 4000 BR PROB30 TEMPO 1700/1706 0800 FG VV///

Decode

Destination Runways

ID Width Length Bearing (true) Bearing (mag) Surface Threshold Offset Overrun Length
10 148 ft / 45 m 5,923 ft / 1,805 m 96.94° 96.79° Asphalt 0 ft / 0 m 1,805 ft / 550 m
28 148 ft / 45 m 5,923 ft / 1,805 m 276.96° 276.81° Asphalt 0 ft / 0 m 1,375 ft / 419 m

Approach Navaids

Runway Type Ident Frequency Range Bearing (true) Bearing (mag) Slope Elevation
28 Localiser AM 109.35 MHz 18 nm / 33 km 276.94° 276.79° - 427 ft / 130 m (AMSL)
28 Glidescope AM 109.35 MHz 10 nm / 19 km 276.95° 276.80° 3.00° 420 ft / 128 m (AMSL)
28 DME AM 109.35 MHz 18 nm / 33 km - - - 420 ft / 128 m (AMSL)

Popular Alternatives